Logo AVAMET
Benvolgut visitant, si us plau, ingressa Recuperar contrasenya
AVAMET paisatges

Pedreguer Patronat

Dades diàries. Acumulats / Últims 30 dies disponibles

Data Temperatura (°C) Humitat rel. (%) Pressió rel. (hPa) Vent (km/h) Precipitació
Mínima Mitjana Màxima Amplitud
tèrmica
Mínima Mitjana Màxima Mínima Mitjana Màxima Predom. Mitjana Ràfega
màxima
Total
(mm)
Índex-n
Mínima Mitjana Màxima Mínima Mitjana Màxima n
0 a 1
P0 max
mm 5'
Dades mensuals acumulades fins l'últim dia disponible
10/2020 9,9 14,6 18,2 19,3 19,6 24,3 31,4 21,5 30 61 93 991 1.015 1.024   2,0 32,2 4,4
Dades anuals acumulades fins l'últim dia disponible
2020 2,6 15,5 25,6 19,8 10,7 24,9 39,1 36,5 18 70 96 991 1.016 1.034   2,1 62,8 405,6
Últims 30 dies disponibles
18-10-2020 12,9     17,9     22,4 9,5 58 72 85 1.018 1.020 1.021 WSW 1,8 17,7 0,0
17-10-2020 9,9     15,7     22,3 12,4 44 62 74 1.015 1.016 1.018 ESE 1,3 22,5 0,0
16-10-2020 12,4     16,0     19,6 7,2 41 54 71 1.015 1.016 1.018 SW 2,4 19,3 0,0
15-10-2020 13,0     17,0     21,9 8,9 30 46 71 1.012 1.014 1.016 WSW 1,6 16,1 0,0
14-10-2020 14,4     17,6     20,0 5,6 53 74 85 1.007 1.009 1.012 SSW 1,0 19,3 0,2
13-10-2020 12,4     19,2     26,3 13,9 38 51 66 1.010 1.013 1.018 S 1,4 22,5 0,0
12-10-2020 14,3     17,4     22,2 7,9 34 48 61 1.018 1.020 1.021 SW 2,9 29,0 0,0
11-10-2020 18,2     19,1     20,3 2,1 47 79 88 1.020 1.020 1.021 NNW 2,6 20,9 0,0
10-10-2020 16,9     20,5     24,1 7,2 66 80 91 1.019 1.020 1.022 ESE 1,0 17,7 0,0
09-10-2020 16,3     20,6     25,7 9,4 65 82 93 1.019 1.021 1.022 ENE 1,9 24,1 0,0
08-10-2020 17,4     21,2     25,8 8,4 62 77 89 1.021 1.022 1.024 ENE 2,3 24,1 0,0
07-10-2020 17,4     22,8     29,4 12,0 42 57 73 1.018 1.020 1.022 ENE 1,3 16,1 0,0
06-10-2020 13,6     20,1     26,8 13,2 36 53 65 1.017 1.019 1.021 S 1,3 25,7 0,0
05-10-2020 17,4     19,9     23,3 5,9 43 50 60 1.011 1.015 1.020 NE 2,1 20,9 0,0
04-10-2020 15,1     20,1     25,8 10,7 35 46 55 1.006 1.009 1.011 WSW 3,1 29,0 0,0
03-10-2020 12,9     17,9     24,2 11,3 30 45 59 1.001 1.005 1.010 SW 3,7 29,0 0,2
02-10-2020 12,2     20,6     25,7 13,5 46 56 86 991 998 1.004 SW 3,4 32,2 4,0 0,40 0,60
01-10-2020 15,4     23,1     31,4 16,0 34 63 92 1.004 1.008 1.012 S 0,6 16,1 0,0
30-09-2020 15,2     19,9     25,3 10,1 63 80 92 1.012 1.014 1.017 ESE 1,7 25,7 0,0
29-09-2020 15,0     19,4     25,2 10,2 56 78 91 1.015 1.017 1.019 ENE 1,1 14,5 0,0
28-09-2020 14,7     19,4     25,0 10,3 37 59 80 1.013 1.015 1.017 SW 1,6 19,3 0,0
27-09-2020 16,5     21,3     23,5 7,0 40 49 63 1.007 1.010 1.013 SW 3,9 33,8 0,0
26-09-2020 16,4     20,3     25,4 9,0 30 41 52 1.010 1.015 1.019 SW 2,7 25,7 0,0
25-09-2020 18,8     23,2     27,1 8,3 29 46 59 1.011 1.014 1.019 SW 4,7 33,8 0,0
24-09-2020 20,9     25,7     30,3 9,4 45 58 69 1.010 1.012 1.013 NE 1,4 27,4 0,0
23-09-2020 20,2     24,5     30,7 10,5 45 70 89 1.009 1.011 1.012 NE 1,4 22,5 0,0
22-09-2020 19,7     23,6     27,6 7,9 51 71 87 1.010 1.013 1.014 SSW 1,6 20,9 2,2
21-09-2020 19,7     24,3     28,8 9,1 44 61 77 1.014 1.014 1.015 ESE 2,1 19,3 0,0
20-09-2020 21,2     24,9     28,0 6,8 47 58 69 1.014 1.015 1.016 SW 2,4 17,7 0,0
19-09-2020 18,8     23,2     28,9 10,1 52 73 89 1.012 1.014 1.016 NE 1,0 17,7 0,0
Últims 13 mesos disponibles
09/2020 14,7 18,7 21,4 23,1 23,5 28,0 31,5 16,8 41 69 86 1.010 1.016 1.022 ENE 1,9 33,8 27,4
08/2020 17,4 22,7 25,6 27,4 25,7 32,6 39,1 21,7 47 68 84 1.003 1.012 1.017 ESE 2,7 38,6 55,8
07/2020 19,4 22,5 25,2 26,8 28,8 32,1 35,8 16,4 54 69 81 1.010 1.015 1.019 ENE 2,9 45,1 3,2
06/2020 15,3 18,8 22,3 23,6 20,8 29,2 32,3 17,0 44 69 86 1.004 1.013 1.020 ESE 2,5 37,0 35,2
05/2020 13,0 16,4 20,4 21,4 20,4 27,2 31,9 18,9 48 67 83 1.004 1.016 1.026 NNW 2,1 37,0 16,6
04/2020 9,2 12,5 18,3 15,8 15,6 20,1 27,6 18,4 48 77 93 1.005 1.015 1.025 SW 2,0 29,0 55,0
03/2020 6,6 10,9 16,6 14,3 10,7 18,3 26,2 19,6 44 72 94 1.006 1.016 1.025 WSW 2,5 51,5 73,4
02/2020 6,2 9,8 13,8 14,6 14,0 20,4 26,7 20,5 39 72 89 1.013 1.024 1.032 ESE 1,3 29,0 6,6
01/2020 2,6 7,6 14,6 11,2 12,1 16,3 22,4 19,8 61 64 67 1.021 1.021 1.021 WSW 1,3 62,8 128,0
12/2019 7,3 10,4 17,4 13,7 13,1 18,3 24,3 17,0 SW 1,3 46,7 178,8
11/2019 6,2 11,9 21,3 15,4 15,1 19,6 27,1 20,9 SW 2,6 40,2 11,0
10/2019 9,8 15,7 19,6 19,8 16,4 24,8 31,7 21,9 SW 1,1 32,2 90,4
09/2019 13,9 19,5 23,0 23,3 22,9 27,7 34,2 20,3 ESE 1,4 51,5 168,0
Tots els anys disponibles
2019 2,2 14,2 27,7 18,5 11,7 23,5 40,3 38,1 SW 2,1 51,5 838,8
2018 5,7 11,7 18,4 15,3 11,8 20,2 28,6 22,9 SW 1,2 48,3 268,2
2017 0,3 15,0 26,9 19,6 8,0 24,7 37,3 37,0 2,2 64,4 583,6
2016 2,2 14,6 25,8 18,8 12,6 23,7 39,6 37,4 2,3 53,1 449,0
2015 1,6 14,4 21,1 18,7 22,4 24,2 41,4 39,8 2,5 61,2 493,2
2014 1,1 14,8 25,2 19,1 9,8 24,5 38,2 37,1 3,0 49,9 184,4
2013 1,3 13,8 16,9 18,2 18,7 23,5 37,0 35,7 3,3 53,1 626,0
2012 0,2 13,9 20,7 18,4 21,7 23,9 41,7 41,5 2,2 45,1 649,0
2011 -0,5 14,1 24,3 18,2 6,6 23,2 38,6 39,1 2,2 49,9 721,4
2010 -0,3 13,6 25,1 17,9 5,8 22,4 40,6 40,9 43 67 95 4,6 174,0 934,0
2009 0,7 14,5 26,0 18,5 5,3 23,1 38,0 37,3 4,9 77,2 1.203,4
2008 4,2 14,2 17,8 22,0 37,2 33,0 5,0 64,4 885,4
2007 3,1 14,4 24,4 18,0 9,4 22,1 36,4 33,3 4,8 74,0 1.421,4
2006 0,0 14,8 18,8 22,7 36,2 36,2 5,1 61,2 776,6
Temperatura (°C)
Humitat relativa (%)
Velocitat del vent i ràfega màxima (km/h)
Direcció del vent (°)
Pressió (hPa)
Precipitació (mm)
Nota sobre les dades: s'avisa a l'usuari de la provisionalitat i no oficialitat d'aquestes dades
Logo AVAMET blanc
Web allotjada a Sollutia
Llicència de Creative CommonsLa web d'AVAMET i els seus continguts estan subjectes a una llicència de
Reconeixement - No Comercial - Compartir igual
Últimes estacions: Alfondeguilla (Soci), Santa Magdalena de Polpís (Soci),  Benafigos (Ajuntament Soci), Carlet - Ajuntament (Inforatge), Montroi (Inforatge), Bronchales (Limítrofe-Terol/Aj. Soci), Sueca - Muntanyeta dels Sants (Inforatge), Vilamarxant - Ajuntament (Aj. Soci/Inforatge), Monteagudo del Castillo - El Portero (Limítrofe-Terol/Soci), Calzadilla de los Barros (Limítrofe-Badajoz/Soci) - - -